Clyde, Iowa
Current Conditions -  °F | °C
As of 5:06 PM on Saturday 20 Dec 2014 (Local Time) from KAMW Reporting Station
Haze Haze  
Wind Chill: 28°   Ceiling: 300
Heat Index: 33°   Visibility: 2.5mi
Dew Point: 31°   Wind: 6mph
Humidity: 92%   Direction: 140°SE
Pressure: 30.12"   Gusts: NA
Location:  41.9063°N, 93.2893°W
Report Text: KAMW 202306Z AUTO 14005KT 2 1/2SM BR OVC003 01/M01 A3012 RMK AO2 T00061006
Loading
Personal Weather Stations






























Interactive Weather Map New forecast layout! Learn more

10-Day Weather Forecast

Advertisements
Track Severe Weather on mobile